Evans Junction, Iowa
Current Conditions -  °F | °C
As of 10:15 PM on Tuesday 27 Jan 2015 (Local Time) from KPEA Reporting Station
Haze Haze  
Wind Chill: 21°   Ceiling: 900
Heat Index: 30°   Visibility: 5mi
Dew Point: 28°   Wind: 10mph
Humidity: 92%   Direction: 130°SE
Pressure: 30.19"   Gusts: NA
Location:  41.2952°N, 92.7652°W
Report Text: KPEA 280415Z AUTO 13009KT 5SM BR BKN009 M01/M02 A3019 RMK AO2 T10131025
Loading
Personal Weather Stations






























Interactive Weather Map New forecast layout! Learn more

10-Day Weather Forecast

Advertisements
Track Severe Weather on mobile